Terminal Aerodrome Forecast
Issued by NWS Wakefield, VA

Home | Current Version | Previous Version | Text Only | Print | Product List | Glossary On
Versions: 1 2 3 4 5 6 7 8 9 10 11 12 13 14 15 16 17 18 19 20 21 22 23 24 25 26 27 28 29
000
FTUS41 KAKQ 240258 AAA
TAFSBY
TAF AMD
KSBY 240258Z 2403/2424 00000KT 2SM BR OVC002
      TEMPO 2403/2406 3/4SM BR
     FM240600 22005KT 2SM BR OVC003
     FM241500 25004KT 4SM BR OVC004
     FM241800 VRB03KT P6SM OVC007
     FM242100 VRB03KT P6SM OVC010=

USA.gov is the U.S. government's official web portal to all federal, state and local government web resources and services.